sensor_id;sensor_type;location;lat;lon;timestamp;P1;durP1;ratioP1;P2;durP2;ratioP2
76210;SDS011;65003;49.518;11.280;2022-12-05T00:01:22;24.27;;;15.37;;
76210;SDS011;65003;49.518;11.280;2022-12-05T00:03:48;24.30;;;15.60;;
76210;SDS011;65003;49.518;11.280;2022-12-05T00:06:14;22.97;;;14.70;;
76210;SDS011;65003;49.518;11.280;2022-12-05T00:08:40;23.57;;;15.93;;
76210;SDS011;65003;49.518;11.280;2022-12-05T00:11:14;22.93;;;15.13;;
76210;SDS011;65003;49.518;11.280;2022-12-05T00:13:40;25.57;;;15.83;;
76210;SDS011;65003;49.518;11.280;2022-12-05T00:16:07;27.27;;;16.53;;
76210;SDS011;65003;49.518;11.280;2022-12-05T00:18:33;27.67;;;16.00;;
76210;SDS011;65003;49.518;11.280;2022-12-05T00:21:00;23.80;;;15.27;;
76210;SDS011;65003;49.518;11.280;2022-12-05T00:23:27;24.97;;;16.27;;
76210;SDS011;65003;49.518;11.280;2022-12-05T00:25:53;25.53;;;16.13;;
76210;SDS011;65003;49.518;11.280;2022-12-05T00:28:20;26.13;;;16.40;;
76210;SDS011;65003;49.518;11.280;2022-12-05T00:30:46;28.03;;;16.77;;
76210;SDS011;65003;49.518;11.280;2022-12-05T00:33:13;27.63;;;16.40;;
76210;SDS011;65003;49.518;11.280;2022-12-05T00:35:40;25.00;;;15.67;;
76210;SDS011;65003;49.518;11.280;2022-12-05T00:38:06;26.40;;;16.43;;
76210;SDS011;65003;49.518;11.280;2022-12-05T00:40:34;25.50;;;15.80;;
76210;SDS011;65003;49.518;11.280;2022-12-05T00:42:59;32.13;;;17.23;;
76210;SDS011;65003;49.518;11.280;2022-12-05T00:45:26;26.23;;;16.20;;
76210;SDS011;65003;49.518;11.280;2022-12-05T00:47:53;25.93;;;15.57;;
76210;SDS011;65003;49.518;11.280;2022-12-05T00:50:19;27.57;;;17.07;;
76210;SDS011;65003;49.518;11.280;2022-12-05T00:52:46;27.30;;;16.43;;
76210;SDS011;65003;49.518;11.280;2022-12-05T00:55:12;30.60;;;16.90;;
76210;SDS011;65003;49.518;11.280;2022-12-05T00:57:39;25.63;;;15.53;;
76210;SDS011;65003;49.518;11.280;2022-12-05T01:00:06;25.83;;;15.00;;
76210;SDS011;65003;49.518;11.280;2022-12-05T01:02:33;26.60;;;15.87;;
76210;SDS011;65003;49.518;11.280;2022-12-05T01:05:00;26.93;;;16.50;;
76210;SDS011;65003;49.518;11.280;2022-12-05T01:07:26;24.73;;;16.30;;
76210;SDS011;65003;49.518;11.280;2022-12-05T01:09:53;22.80;;;15.73;;
76210;SDS011;65003;49.518;11.280;2022-12-05T01:12:19;23.10;;;14.47;;
76210;SDS011;65003;49.518;11.280;2022-12-05T01:14:46;23.17;;;15.27;;
76210;SDS011;65003;49.518;11.280;2022-12-05T01:17:12;21.63;;;14.30;;
76210;SDS011;65003;49.518;11.280;2022-12-05T01:19:39;24.50;;;14.67;;
76210;SDS011;65003;49.518;11.280;2022-12-05T01:22:06;22.73;;;14.07;;
76210;SDS011;65003;49.518;11.280;2022-12-05T01:24:32;22.50;;;15.07;;
76210;SDS011;65003;49.518;11.280;2022-12-05T01:26:59;24.33;;;15.03;;
76210;SDS011;65003;49.518;11.280;2022-12-05T01:29:25;25.23;;;16.03;;
76210;SDS011;65003;49.518;11.280;2022-12-05T01:31:52;26.83;;;14.93;;
76210;SDS011;65003;49.518;11.280;2022-12-05T01:34:19;22.50;;;14.80;;
76210;SDS011;65003;49.518;11.280;2022-12-05T01:36:45;24.97;;;15.00;;
76210;SDS011;65003;49.518;11.280;2022-12-05T01:39:12;24.83;;;15.27;;
76210;SDS011;65003;49.518;11.280;2022-12-05T01:41:41;25.77;;;15.83;;
76210;SDS011;65003;49.518;11.280;2022-12-05T01:46:34;27.37;;;15.63;;
76210;SDS011;65003;49.518;11.280;2022-12-05T01:49:09;24.07;;;16.20;;
76210;SDS011;65003;49.518;11.280;2022-12-05T01:51:38;24.27;;;16.10;;
76210;SDS011;65003;49.518;11.280;2022-12-05T01:54:03;30.00;;;18.73;;
76210;SDS011;65003;49.518;11.280;2022-12-05T01:56:30;37.90;;;20.27;;
76210;SDS011;65003;49.518;11.280;2022-12-05T01:58:56;29.80;;;16.20;;
76210;SDS011;65003;49.518;11.280;2022-12-05T02:01:23;34.43;;;17.53;;
76210;SDS011;65003;49.518;11.280;2022-12-05T02:03:50;31.63;;;18.13;;
76210;SDS011;65003;49.518;11.280;2022-12-05T02:06:16;29.37;;;16.17;;
76210;SDS011;65003;49.518;11.280;2022-12-05T02:08:43;32.03;;;17.00;;
76210;SDS011;65003;49.518;11.280;2022-12-05T02:11:09;27.27;;;17.07;;
76210;SDS011;65003;49.518;11.280;2022-12-05T02:13:42;26.60;;;16.50;;
76210;SDS011;65003;49.518;11.280;2022-12-05T02:16:26;26.40;;;16.17;;
76210;SDS011;65003;49.518;11.280;2022-12-05T02:19:13;26.60;;;16.20;;
76210;SDS011;65003;49.518;11.280;2022-12-05T02:21:59;25.50;;;15.27;;
76210;SDS011;65003;49.518;11.280;2022-12-05T02:24:49;24.70;;;15.10;;
76210;SDS011;65003;49.518;11.280;2022-12-05T02:27:21;24.57;;;14.37;;
76210;SDS011;65003;49.518;11.280;2022-12-05T02:30:05;25.30;;;15.30;;
76210;SDS011;65003;49.518;11.280;2022-12-05T02:32:37;23.93;;;15.03;;
76210;SDS011;65003;49.518;11.280;2022-12-05T02:35:08;25.53;;;14.70;;
76210;SDS011;65003;49.518;11.280;2022-12-05T02:37:52;25.63;;;14.63;;
76210;SDS011;65003;49.518;11.280;2022-12-05T02:40:23;26.77;;;14.83;;
76210;SDS011;65003;49.518;11.280;2022-12-05T02:42:54;25.00;;;15.53;;
76210;SDS011;65003;49.518;11.280;2022-12-05T02:45:19;24.37;;;14.97;;
76210;SDS011;65003;49.518;11.280;2022-12-05T02:47:47;23.97;;;13.80;;
76210;SDS011;65003;49.518;11.280;2022-12-05T02:50:13;23.33;;;14.37;;
76210;SDS011;65003;49.518;11.280;2022-12-05T02:52:39;23.30;;;14.47;;
76210;SDS011;65003;49.518;11.280;2022-12-05T02:55:06;22.60;;;14.63;;
76210;SDS011;65003;49.518;11.280;2022-12-05T02:57:33;22.83;;;14.73;;
76210;SDS011;65003;49.518;11.280;2022-12-05T02:59:59;21.30;;;13.57;;
76210;SDS011;65003;49.518;11.280;2022-12-05T03:02:27;20.47;;;13.67;;
76210;SDS011;65003;49.518;11.280;2022-12-05T03:04:57;24.97;;;14.27;;
76210;SDS011;65003;49.518;11.280;2022-12-05T03:07:23;18.70;;;13.83;;
76210;SDS011;65003;49.518;11.280;2022-12-05T03:09:51;19.77;;;13.73;;
76210;SDS011;65003;49.518;11.280;2022-12-05T03:12:17;19.93;;;13.33;;
76210;SDS011;65003;49.518;11.280;2022-12-05T03:14:45;23.20;;;13.47;;
76210;SDS011;65003;49.518;11.280;2022-12-05T03:17:10;20.07;;;13.83;;
76210;SDS011;65003;49.518;11.280;2022-12-05T03:19:48;19.43;;;12.70;;
76210;SDS011;65003;49.518;11.280;2022-12-05T03:22:17;20.57;;;12.80;;
76210;SDS011;65003;49.518;11.280;2022-12-05T03:24:46;16.70;;;12.13;;
76210;SDS011;65003;49.518;11.280;2022-12-05T03:27:20;18.90;;;11.23;;
76210;SDS011;65003;49.518;11.280;2022-12-05T03:32:23;18.13;;;11.20;;
76210;SDS011;65003;49.518;11.280;2022-12-05T03:34:57;17.77;;;11.47;;
76210;SDS011;65003;49.518;11.280;2022-12-05T03:37:26;17.87;;;11.77;;
76210;SDS011;65003;49.518;11.280;2022-12-05T03:39:53;15.37;;;10.40;;
76210;SDS011;65003;49.518;11.280;2022-12-05T03:42:19;15.37;;;9.97;;
76210;SDS011;65003;49.518;11.280;2022-12-05T03:44:48;14.03;;;9.80;;
76210;SDS011;65003;49.518;11.280;2022-12-05T03:47:22;11.87;;;9.30;;
76210;SDS011;65003;49.518;11.280;2022-12-05T03:49:48;14.83;;;10.30;;
76210;SDS011;65003;49.518;11.280;2022-12-05T03:52:14;12.80;;;8.87;;
76210;SDS011;65003;49.518;11.280;2022-12-05T03:54:42;14.60;;;9.67;;
76210;SDS011;65003;49.518;11.280;2022-12-05T03:57:08;12.03;;;8.73;;
76210;SDS011;65003;49.518;11.280;2022-12-05T03:59:38;13.47;;;8.93;;
76210;SDS011;65003;49.518;11.280;2022-12-05T04:02:08;14.27;;;10.03;;
76210;SDS011;65003;49.518;11.280;2022-12-05T04:04:34;13.83;;;8.87;;
76210;SDS011;65003;49.518;11.280;2022-12-05T04:07:00;13.33;;;8.80;;
76210;SDS011;65003;49.518;11.280;2022-12-05T04:09:27;11.60;;;8.43;;
76210;SDS011;65003;49.518;11.280;2022-12-05T04:11:54;11.97;;;8.90;;
76210;SDS011;65003;49.518;11.280;2022-12-05T04:14:30;9.80;;;7.77;;
76210;SDS011;65003;49.518;11.280;2022-12-05T04:16:59;11.40;;;8.20;;
76210;SDS011;65003;49.518;11.280;2022-12-05T04:19:37;11.27;;;8.23;;
76210;SDS011;65003;49.518;11.280;2022-12-05T04:22:24;13.33;;;7.97;;
76210;SDS011;65003;49.518;11.280;2022-12-05T04:24:51;12.07;;;8.40;;
76210;SDS011;65003;49.518;11.280;2022-12-05T04:27:28;13.80;;;8.77;;
76210;SDS011;65003;49.518;11.280;2022-12-05T04:30:01;13.83;;;8.60;;
76210;SDS011;65003;49.518;11.280;2022-12-05T04:32:31;12.60;;;7.93;;
76210;SDS011;65003;49.518;11.280;2022-12-05T04:34:57;13.33;;;7.77;;
76210;SDS011;65003;49.518;11.280;2022-12-05T04:37:22;12.10;;;8.80;;
76210;SDS011;65003;49.518;11.280;2022-12-05T04:39:52;12.33;;;7.77;;
76210;SDS011;65003;49.518;11.280;2022-12-05T04:42:20;11.93;;;7.93;;
76210;SDS011;65003;49.518;11.280;2022-12-05T04:44:47;10.40;;;6.90;;
76210;SDS011;65003;49.518;11.280;2022-12-05T04:47:13;10.83;;;7.83;;
76210;SDS011;65003;49.518;11.280;2022-12-05T04:49:40;9.23;;;6.67;;
76210;SDS011;65003;49.518;11.280;2022-12-05T04:52:07;10.00;;;7.90;;
76210;SDS011;65003;49.518;11.280;2022-12-05T04:54:35;9.87;;;6.50;;
76210;SDS011;65003;49.518;11.280;2022-12-05T04:57:04;10.57;;;6.53;;
76210;SDS011;65003;49.518;11.280;2022-12-05T04:59:31;8.83;;;6.13;;
76210;SDS011;65003;49.518;11.280;2022-12-05T05:01:59;6.77;;;5.90;;
76210;SDS011;65003;49.518;11.280;2022-12-05T05:04:25;9.00;;;6.30;;
76210;SDS011;65003;49.518;11.280;2022-12-05T05:06:52;8.30;;;5.63;;
76210;SDS011;65003;49.518;11.280;2022-12-05T05:09:19;9.90;;;6.30;;
76210;SDS011;65003;49.518;11.280;2022-12-05T05:11:45;7.40;;;6.17;;
76210;SDS011;65003;49.518;11.280;2022-12-05T05:14:12;10.30;;;5.45;;
76210;SDS011;65003;49.518;11.280;2022-12-05T05:16:39;7.60;;;5.77;;
76210;SDS011;65003;49.518;11.280;2022-12-05T05:19:05;8.00;;;5.60;;
76210;SDS011;65003;49.518;11.280;2022-12-05T05:21:33;8.80;;;6.40;;
76210;SDS011;65003;49.518;11.280;2022-12-05T05:23:58;8.90;;;5.83;;
76210;SDS011;65003;49.518;11.280;2022-12-05T05:26:26;7.97;;;5.63;;
76210;SDS011;65003;49.518;11.280;2022-12-05T05:28:52;8.50;;;5.80;;
76210;SDS011;65003;49.518;11.280;2022-12-05T05:31:19;10.17;;;6.00;;
76210;SDS011;65003;49.518;11.280;2022-12-05T05:33:47;7.90;;;5.17;;
76210;SDS011;65003;49.518;11.280;2022-12-05T05:36:13;10.73;;;5.60;;
76210;SDS011;65003;49.518;11.280;2022-12-05T05:38:41;6.67;;;5.60;;
76210;SDS011;65003;49.518;11.280;2022-12-05T05:41:11;7.87;;;5.40;;
76210;SDS011;65003;49.518;11.280;2022-12-05T05:43:41;10.80;;;5.30;;
76210;SDS011;65003;49.518;11.280;2022-12-05T05:46:08;8.93;;;5.80;;
76210;SDS011;65003;49.518;11.280;2022-12-05T05:48:34;8.17;;;5.60;;
76210;SDS011;65003;49.518;11.280;2022-12-05T05:51:02;7.00;;;5.13;;
76210;SDS011;65003;49.518;11.280;2022-12-05T05:53:28;8.03;;;5.27;;
76210;SDS011;65003;49.518;11.280;2022-12-05T05:55:54;8.13;;;4.80;;
76210;SDS011;65003;49.518;11.280;2022-12-05T05:58:21;9.40;;;4.97;;
76210;SDS011;65003;49.518;11.280;2022-12-05T06:00:47;8.30;;;5.93;;
76210;SDS011;65003;49.518;11.280;2022-12-05T06:03:14;9.00;;;5.93;;
76210;SDS011;65003;49.518;11.280;2022-12-05T06:05:40;6.47;;;5.10;;
76210;SDS011;65003;49.518;11.280;2022-12-05T06:08:07;6.53;;;4.37;;
76210;SDS011;65003;49.518;11.280;2022-12-05T06:10:34;7.23;;;4.90;;
76210;SDS011;65003;49.518;11.280;2022-12-05T06:13:00;5.67;;;4.50;;
76210;SDS011;65003;49.518;11.280;2022-12-05T06:15:27;6.90;;;5.03;;
76210;SDS011;65003;49.518;11.280;2022-12-05T06:17:55;5.80;;;4.07;;
76210;SDS011;65003;49.518;11.280;2022-12-05T06:20:20;6.47;;;5.10;;
76210;SDS011;65003;49.518;11.280;2022-12-05T06:22:46;7.40;;;6.13;;
76210;SDS011;65003;49.518;11.280;2022-12-05T06:25:13;6.03;;;4.80;;
76210;SDS011;65003;49.518;11.280;2022-12-05T06:27:40;7.23;;;5.07;;
76210;SDS011;65003;49.518;11.280;2022-12-05T06:30:06;8.63;;;5.30;;
76210;SDS011;65003;49.518;11.280;2022-12-05T06:32:33;7.33;;;4.90;;
76210;SDS011;65003;49.518;11.280;2022-12-05T06:35:00;12.53;;;8.83;;
76210;SDS011;65003;49.518;11.280;2022-12-05T06:37:26;6.63;;;5.13;;
76210;SDS011;65003;49.518;11.280;2022-12-05T06:39:53;8.17;;;5.20;;
76210;SDS011;65003;49.518;11.280;2022-12-05T06:42:20;6.43;;;5.10;;
76210;SDS011;65003;49.518;11.280;2022-12-05T06:44:46;7.97;;;5.50;;
76210;SDS011;65003;49.518;11.280;2022-12-05T06:47:13;9.80;;;5.63;;
76210;SDS011;65003;49.518;11.280;2022-12-05T06:49:39;8.47;;;5.17;;
76210;SDS011;65003;49.518;11.280;2022-12-05T06:52:06;7.37;;;5.10;;
76210;SDS011;65003;49.518;11.280;2022-12-05T06:54:33;9.20;;;5.57;;
76210;SDS011;65003;49.518;11.280;2022-12-05T06:56:59;11.40;;;8.03;;
76210;SDS011;65003;49.518;11.280;2022-12-05T06:59:26;10.27;;;7.57;;
76210;SDS011;65003;49.518;11.280;2022-12-05T07:01:52;10.53;;;7.07;;
76210;SDS011;65003;49.518;11.280;2022-12-05T07:04:19;8.97;;;6.67;;
76210;SDS011;65003;49.518;11.280;2022-12-05T07:06:46;11.23;;;6.20;;
76210;SDS011;65003;49.518;11.280;2022-12-05T07:09:15;8.93;;;6.27;;
76210;SDS011;65003;49.518;11.280;2022-12-05T07:11:41;10.47;;;6.67;;
76210;SDS011;65003;49.518;11.280;2022-12-05T07:14:08;20.93;;;12.80;;
76210;SDS011;65003;49.518;11.280;2022-12-05T07:16:34;16.30;;;10.50;;
76210;SDS011;65003;49.518;11.280;2022-12-05T07:19:01;9.43;;;6.63;;
76210;SDS011;65003;49.518;11.280;2022-12-05T07:21:27;9.27;;;6.30;;
76210;SDS011;65003;49.518;11.280;2022-12-05T07:23:55;10.27;;;6.33;;
76210;SDS011;65003;49.518;11.280;2022-12-05T07:26:22;12.90;;;6.90;;
76210;SDS011;65003;49.518;11.280;2022-12-05T07:28:49;13.00;;;9.37;;
76210;SDS011;65003;49.518;11.280;2022-12-05T07:31:16;10.23;;;6.73;;
76210;SDS011;65003;49.518;11.280;2022-12-05T07:33:41;15.90;;;10.27;;
76210;SDS011;65003;49.518;11.280;2022-12-05T07:36:09;39.43;;;35.37;;
76210;SDS011;65003;49.518;11.280;2022-12-05T07:38:35;18.60;;;11.77;;
76210;SDS011;65003;49.518;11.280;2022-12-05T07:41:04;16.83;;;11.50;;
76210;SDS011;65003;49.518;11.280;2022-12-05T07:43:31;31.43;;;23.10;;
76210;SDS011;65003;49.518;11.280;2022-12-05T07:46:01;12.73;;;9.27;;
76210;SDS011;65003;49.518;11.280;2022-12-05T07:48:28;15.33;;;9.53;;
76210;SDS011;65003;49.518;11.280;2022-12-05T07:50:58;17.37;;;13.67;;
76210;SDS011;65003;49.518;11.280;2022-12-05T07:53:23;12.63;;;7.30;;
76210;SDS011;65003;49.518;11.280;2022-12-05T07:55:50;25.77;;;21.53;;
76210;SDS011;65003;49.518;11.280;2022-12-05T07:58:16;13.47;;;8.67;;
76210;SDS011;65003;49.518;11.280;2022-12-05T08:00:43;14.17;;;7.90;;
76210;SDS011;65003;49.518;11.280;2022-12-05T08:03:09;16.57;;;9.77;;
76210;SDS011;65003;49.518;11.280;2022-12-05T08:05:36;64.07;;;43.30;;
76210;SDS011;65003;49.518;11.280;2022-12-05T08:08:03;19.47;;;13.60;;
76210;SDS011;65003;49.518;11.280;2022-12-05T08:10:29;12.27;;;7.17;;
76210;SDS011;65003;49.518;11.280;2022-12-05T08:12:56;13.23;;;9.37;;
76210;SDS011;65003;49.518;11.280;2022-12-05T08:15:22;14.47;;;8.33;;
76210;SDS011;65003;49.518;11.280;2022-12-05T08:17:49;14.60;;;8.27;;
76210;SDS011;65003;49.518;11.280;2022-12-05T08:20:16;12.57;;;9.23;;
76210;SDS011;65003;49.518;11.280;2022-12-05T08:22:42;12.80;;;8.47;;
76210;SDS011;65003;49.518;11.280;2022-12-05T08:25:09;14.80;;;10.07;;
76210;SDS011;65003;49.518;11.280;2022-12-05T08:27:35;12.87;;;8.60;;
76210;SDS011;65003;49.518;11.280;2022-12-05T08:30:02;14.83;;;9.30;;
76210;SDS011;65003;49.518;11.280;2022-12-05T08:32:29;19.60;;;11.30;;
76210;SDS011;65003;49.518;11.280;2022-12-05T08:34:56;14.83;;;8.47;;
76210;SDS011;65003;49.518;11.280;2022-12-05T08:37:22;15.30;;;10.57;;
76210;SDS011;65003;49.518;11.280;2022-12-05T08:39:49;14.13;;;8.97;;
76210;SDS011;65003;49.518;11.280;2022-12-05T08:42:16;15.63;;;12.13;;
76210;SDS011;65003;49.518;11.280;2022-12-05T08:44:42;15.63;;;9.37;;
76210;SDS011;65003;49.518;11.280;2022-12-05T08:47:09;13.80;;;8.63;;
76210;SDS011;65003;49.518;11.280;2022-12-05T08:49:35;15.60;;;8.87;;
76210;SDS011;65003;49.518;11.280;2022-12-05T08:52:02;18.00;;;10.50;;
76210;SDS011;65003;49.518;11.280;2022-12-05T08:54:29;14.50;;;8.83;;
76210;SDS011;65003;49.518;11.280;2022-12-05T08:56:55;15.27;;;8.77;;
76210;SDS011;65003;49.518;11.280;2022-12-05T08:59:22;13.80;;;9.40;;
76210;SDS011;65003;49.518;11.280;2022-12-05T09:01:49;15.13;;;11.07;;
76210;SDS011;65003;49.518;11.280;2022-12-05T09:04:15;15.17;;;8.47;;
76210;SDS011;65003;49.518;11.280;2022-12-05T09:06:41;14.97;;;8.77;;
76210;SDS011;65003;49.518;11.280;2022-12-05T09:09:08;16.33;;;8.93;;
76210;SDS011;65003;49.518;11.280;2022-12-05T09:11:35;13.43;;;8.77;;
76210;SDS011;65003;49.518;11.280;2022-12-05T09:14:02;15.17;;;8.20;;
76210;SDS011;65003;49.518;11.280;2022-12-05T09:16:29;15.57;;;9.40;;
76210;SDS011;65003;49.518;11.280;2022-12-05T09:18:55;16.37;;;9.83;;
76210;SDS011;65003;49.518;11.280;2022-12-05T09:21:23;15.43;;;9.47;;
76210;SDS011;65003;49.518;11.280;2022-12-05T09:23:49;19.53;;;12.83;;
76210;SDS011;65003;49.518;11.280;2022-12-05T09:26:16;16.53;;;8.97;;
76210;SDS011;65003;49.518;11.280;2022-12-05T09:28:42;13.90;;;9.77;;
76210;SDS011;65003;49.518;11.280;2022-12-05T09:31:10;18.07;;;11.40;;
76210;SDS011;65003;49.518;11.280;2022-12-05T09:33:37;15.13;;;8.80;;
76210;SDS011;65003;49.518;11.280;2022-12-05T09:36:05;16.33;;;9.53;;
76210;SDS011;65003;49.518;11.280;2022-12-05T09:38:31;17.20;;;9.23;;
76210;SDS011;65003;49.518;11.280;2022-12-05T09:41:01;15.70;;;9.00;;
76210;SDS011;65003;49.518;11.280;2022-12-05T09:43:29;18.33;;;8.47;;
76210;SDS011;65003;49.518;11.280;2022-12-05T09:45:55;15.13;;;9.07;;
76210;SDS011;65003;49.518;11.280;2022-12-05T09:48:19;14.87;;;8.93;;
76210;SDS011;65003;49.518;11.280;2022-12-05T09:50:47;17.33;;;9.67;;
76210;SDS011;65003;49.518;11.280;2022-12-05T09:53:19;17.50;;;9.27;;
76210;SDS011;65003;49.518;11.280;2022-12-05T09:58:47;18.47;;;10.17;;
76210;SDS011;65003;49.518;11.280;2022-12-05T10:01:20;18.97;;;9.53;;
76210;SDS011;65003;49.518;11.280;2022-12-05T10:06:54;18.27;;;11.10;;
76210;SDS011;65003;49.518;11.280;2022-12-05T10:09:38;17.13;;;10.50;;
76210;SDS011;65003;49.518;11.280;2022-12-05T10:12:09;17.43;;;10.03;;
76210;SDS011;65003;49.518;11.280;2022-12-05T10:14:40;19.23;;;10.03;;
76210;SDS011;65003;49.518;11.280;2022-12-05T10:17:06;19.57;;;9.97;;
76210;SDS011;65003;49.518;11.280;2022-12-05T10:19:33;16.50;;;9.83;;
76210;SDS011;65003;49.518;11.280;2022-12-05T10:22:01;18.13;;;9.33;;
76210;SDS011;65003;49.518;11.280;2022-12-05T10:24:32;14.10;;;9.10;;
76210;SDS011;65003;49.518;11.280;2022-12-05T10:26:59;15.80;;;9.33;;
76210;SDS011;65003;49.518;11.280;2022-12-05T10:29:27;16.23;;;9.97;;
76210;SDS011;65003;49.518;11.280;2022-12-05T10:31:54;14.77;;;9.13;;
76210;SDS011;65003;49.518;11.280;2022-12-05T10:34:30;15.97;;;10.13;;
76210;SDS011;65003;49.518;11.280;2022-12-05T10:37:03;19.87;;;11.07;;
76210;SDS011;65003;49.518;11.280;2022-12-05T10:39:33;19.17;;;10.33;;
76210;SDS011;65003;49.518;11.280;2022-12-05T10:41:59;16.80;;;9.93;;
76210;SDS011;65003;49.518;11.280;2022-12-05T10:44:26;15.77;;;9.80;;
76210;SDS011;65003;49.518;11.280;2022-12-05T10:46:53;17.37;;;9.57;;
76210;SDS011;65003;49.518;11.280;2022-12-05T10:49:19;15.37;;;9.37;;
76210;SDS011;65003;49.518;11.280;2022-12-05T10:51:46;21.33;;;9.77;;
76210;SDS011;65003;49.518;11.280;2022-12-05T10:54:15;17.07;;;9.50;;
76210;SDS011;65003;49.518;11.280;2022-12-05T10:56:42;18.13;;;9.67;;
76210;SDS011;65003;49.518;11.280;2022-12-05T10:59:09;18.03;;;9.60;;
76210;SDS011;65003;49.518;11.280;2022-12-05T11:01:34;17.67;;;9.53;;
76210;SDS011;65003;49.518;11.280;2022-12-05T11:04:04;15.63;;;9.60;;
76210;SDS011;65003;49.518;11.280;2022-12-05T11:06:30;16.23;;;9.27;;
76210;SDS011;65003;49.518;11.280;2022-12-05T11:08:58;15.83;;;8.80;;
76210;SDS011;65003;49.518;11.280;2022-12-05T11:11:29;16.90;;;9.07;;
76210;SDS011;65003;49.518;11.280;2022-12-05T11:13:55;14.53;;;8.67;;
76210;SDS011;65003;49.518;11.280;2022-12-05T11:16:22;13.87;;;8.80;;
76210;SDS011;65003;49.518;11.280;2022-12-05T11:18:49;16.17;;;9.93;;
76210;SDS011;65003;49.518;11.280;2022-12-05T11:21:16;13.87;;;8.90;;
76210;SDS011;65003;49.518;11.280;2022-12-05T11:23:42;15.27;;;9.37;;
76210;SDS011;65003;49.518;11.280;2022-12-05T11:26:32;13.93;;;8.80;;
76210;SDS011;65003;49.518;11.280;2022-12-05T11:28:57;13.70;;;9.50;;
76210;SDS011;65003;49.518;11.280;2022-12-05T11:31:26;20.80;;;9.93;;
76210;SDS011;65003;49.518;11.280;2022-12-05T11:34:02;13.93;;;9.10;;
76210;SDS011;65003;49.518;11.280;2022-12-05T11:36:37;16.63;;;10.17;;
76210;SDS011;65003;49.518;11.280;2022-12-05T11:38:56;15.73;;;8.83;;
76210;SDS011;65003;49.518;11.280;2022-12-05T11:46:47;14.40;;;10.00;;
76210;SDS011;65003;49.518;11.280;2022-12-05T11:49:18;18.00;;;10.17;;
76210;SDS011;65003;49.518;11.280;2022-12-05T11:51:57;15.53;;;9.77;;
76210;SDS011;65003;49.518;11.280;2022-12-05T11:54:30;15.67;;;9.17;;
76210;SDS011;65003;49.518;11.280;2022-12-05T11:57:01;18.17;;;10.27;;
76210;SDS011;65003;49.518;11.280;2022-12-05T11:59:41;18.63;;;10.50;;
76210;SDS011;65003;49.518;11.280;2022-12-05T12:05:04;16.13;;;9.53;;
76210;SDS011;65003;49.518;11.280;2022-12-05T12:07:54;13.50;;;8.97;;
76210;SDS011;65003;49.518;11.280;2022-12-05T12:10:33;15.67;;;9.37;;
76210;SDS011;65003;49.518;11.280;2022-12-05T12:13:07;16.60;;;9.07;;
76210;SDS011;65003;49.518;11.280;2022-12-05T12:15:57;17.47;;;10.83;;
76210;SDS011;65003;49.518;11.280;2022-12-05T12:18:23;16.00;;;9.03;;
76210;SDS011;65003;49.518;11.280;2022-12-05T12:21:12;14.30;;;8.40;;
76210;SDS011;65003;49.518;11.280;2022-12-05T12:23:49;13.43;;;8.37;;
76210;SDS011;65003;49.518;11.280;2022-12-05T12:29:40;16.37;;;9.43;;
76210;SDS011;65003;49.518;11.280;2022-12-05T12:32:22;12.23;;;8.37;;
76210;SDS011;65003;49.518;11.280;2022-12-05T12:35:12;16.07;;;9.40;;
76210;SDS011;65003;49.518;11.280;2022-12-05T12:40:34;14.60;;;7.97;;
76210;SDS011;65003;49.518;11.280;2022-12-05T12:43:05;14.37;;;8.40;;
76210;SDS011;65003;49.518;11.280;2022-12-05T12:45:36;13.67;;;8.37;;
76210;SDS011;65003;49.518;11.280;2022-12-05T12:48:14;16.27;;;8.80;;
76210;SDS011;65003;49.518;11.280;2022-12-05T12:50:50;13.87;;;8.20;;
76210;SDS011;65003;49.518;11.280;2022-12-05T12:55:59;11.37;;;7.40;;
76210;SDS011;65003;49.518;11.280;2022-12-05T12:58:30;12.53;;;8.10;;
76210;SDS011;65003;49.518;11.280;2022-12-05T13:01:04;11.23;;;6.63;;
76210;SDS011;65003;49.518;11.280;2022-12-05T13:03:31;11.57;;;7.27;;
76210;SDS011;65003;49.518;11.280;2022-12-05T13:05:58;10.20;;;6.83;;
76210;SDS011;65003;49.518;11.280;2022-12-05T13:08:27;9.73;;;6.70;;
76210;SDS011;65003;49.518;11.280;2022-12-05T13:11:09;11.40;;;6.77;;
76210;SDS011;65003;49.518;11.280;2022-12-05T13:13:36;11.17;;;8.10;;
76210;SDS011;65003;49.518;11.280;2022-12-05T13:16:02;12.27;;;7.73;;
76210;SDS011;65003;49.518;11.280;2022-12-05T13:18:28;11.67;;;7.60;;
76210;SDS011;65003;49.518;11.280;2022-12-05T13:20:59;15.90;;;9.63;;
76210;SDS011;65003;49.518;11.280;2022-12-05T13:23:24;14.83;;;7.87;;
76210;SDS011;65003;49.518;11.280;2022-12-05T13:25:50;12.47;;;8.10;;
76210;SDS011;65003;49.518;11.280;2022-12-05T13:28:28;13.63;;;7.87;;
76210;SDS011;65003;49.518;11.280;2022-12-05T13:30:56;15.13;;;8.10;;
76210;SDS011;65003;49.518;11.280;2022-12-05T13:33:24;14.00;;;7.17;;
76210;SDS011;65003;49.518;11.280;2022-12-05T13:35:53;12.30;;;7.47;;
76210;SDS011;65003;49.518;11.280;2022-12-05T13:38:30;10.90;;;7.03;;
76210;SDS011;65003;49.518;11.280;2022-12-05T13:41:05;13.07;;;7.90;;
76210;SDS011;65003;49.518;11.280;2022-12-05T13:43:40;11.93;;;7.83;;
76210;SDS011;65003;49.518;11.280;2022-12-05T13:46:07;13.00;;;8.33;;
76210;SDS011;65003;49.518;11.280;2022-12-05T13:48:36;12.27;;;7.90;;
76210;SDS011;65003;49.518;11.280;2022-12-05T13:51:04;12.90;;;7.47;;
76210;SDS011;65003;49.518;11.280;2022-12-05T13:53:31;11.87;;;7.33;;
76210;SDS011;65003;49.518;11.280;2022-12-05T13:58:54;14.00;;;8.07;;
76210;SDS011;65003;49.518;11.280;2022-12-05T14:04:17;12.73;;;7.40;;
76210;SDS011;65003;49.518;11.280;2022-12-05T14:09:28;12.00;;;8.53;;
76210;SDS011;65003;49.518;11.280;2022-12-05T14:17:09;12.80;;;7.40;;
76210;SDS011;65003;49.518;11.280;2022-12-05T14:19:39;13.60;;;7.80;;
76210;SDS011;65003;49.518;11.280;2022-12-05T14:22:08;15.27;;;12.03;;
76210;SDS011;65003;49.518;11.280;2022-12-05T14:24:37;14.83;;;9.03;;
76210;SDS011;65003;49.518;11.280;2022-12-05T14:27:04;13.50;;;8.50;;
76210;SDS011;65003;49.518;11.280;2022-12-05T14:30:19;13.03;;;9.30;;
76210;SDS011;65003;49.518;11.280;2022-12-05T14:32:30;13.17;;;10.50;;
76210;SDS011;65003;49.518;11.280;2022-12-05T14:34:57;15.73;;;13.20;;
76210;SDS011;65003;49.518;11.280;2022-12-05T14:37:29;15.93;;;13.53;;
76210;SDS011;65003;49.518;11.280;2022-12-05T14:39:57;14.77;;;12.73;;
76210;SDS011;65003;49.518;11.280;2022-12-05T14:42:31;13.80;;;9.77;;
76210;SDS011;65003;49.518;11.280;2022-12-05T14:44:59;14.47;;;11.17;;
76210;SDS011;65003;49.518;11.280;2022-12-05T14:47:27;11.80;;;8.53;;
76210;SDS011;65003;49.518;11.280;2022-12-05T14:49:55;13.03;;;8.40;;
76210;SDS011;65003;49.518;11.280;2022-12-05T14:52:21;15.23;;;8.70;;
76210;SDS011;65003;49.518;11.280;2022-12-05T14:54:48;12.67;;;7.77;;
76210;SDS011;65003;49.518;11.280;2022-12-05T14:57:14;10.83;;;7.77;;
76210;SDS011;65003;49.518;11.280;2022-12-05T14:59:44;13.40;;;8.33;;
76210;SDS011;65003;49.518;11.280;2022-12-05T15:02:13;11.70;;;8.40;;
76210;SDS011;65003;49.518;11.280;2022-12-05T15:04:45;11.43;;;7.90;;
76210;SDS011;65003;49.518;11.280;2022-12-05T15:07:17;14.80;;;9.53;;
76210;SDS011;65003;49.518;11.280;2022-12-05T15:09:56;15.77;;;11.23;;